Terminal Aerodrome Forecast
Issued by NWS

Current Version | Previous Version | Graphics & Text | Print | Product List | Glossary On
Versions: 1 2 3 4 5 6 7 8 9 10 11 12 13 14 15 16 17 18 19 20 21 22 23 24 25 26 27 28 29 30 31 32 33 34 35 36 37 38 39 40 41 42 43
000
FTUS41 KRNK 221720
TAFLWB
TAF
KLWB 221720Z 2218/2318 08005KT P6SM SCT005 OVC015
      TEMPO 2218/2221 4SM -DZ BR BKN005
     FM222100 09004KT 5SM BR OVC005
      TEMPO 2306/2310 2SM -SHRA BR
     FM231500 VRB03KT P6SM SCT007 OVC020
      TEMPO 2315/2318 BKN007=

USA.gov is the U.S. government's official web portal to all federal, state and local government web resources and services.